Time;durP1;ratioP1;P1;durP2;ratioP2;P2;SDS_P1;SDS_P2;PMS_P1;PMS_P2;Temp;Humidity;BMP_temperature;BMP_pressure;BME280_temperature;BME280_humidity;BME280_pressure;Samples;Min_cycle;Max_cycle;Signal;HPM_P1;HPM_P2
2022/09/18 00:02:19;;;;;;;;;;;;;;;21.74;49.74;101166.75;5136182;27;19937;-35
2022/09/18 00:04:45;;;;;;;;;;;;;;;21.74;49.76;101165.94;5117623;27;19952;-38
2022/09/18 00:07:10;;;;;;;;;;;;;;;21.73;49.65;101156.78;5135244;27;19931;-37
2022/09/18 00:09:36;;;;;;;;;;;;;;;21.73;49.67;101162.34;5130813;27;20247;-36
2022/09/18 00:12:02;;;;;;;;;;;;;;;21.75;49.94;101150.94;5134758;27;19924;-35
2022/09/18 00:14:28;;;;;;;;;;;;;;;21.74;49.75;101152.06;5136122;27;20027;-36
2022/09/18 00:16:53;;;;;;;;;;;;;;;21.75;49.71;101148.19;5130493;27;19940;-37
2022/09/18 00:19:19;;;;;;;;;;;;;;;21.73;49.82;101151.25;5132942;27;20278;-36
2022/09/18 00:21:46;;;;;;;;;;;;;;;21.72;49.63;101152.38;5117230;27;19961;-36
2022/09/18 00:24:12;;;;;;;;;;;;;;;21.74;49.81;101147.34;5135421;27;20371;-35
2022/09/18 00:26:38;;;;;;;;;;;;;;;21.73;49.82;101155.97;5141603;27;19923;-36
2022/09/18 00:29:03;;;;;;;;;;;;;;;21.72;49.76;101152.38;5137204;27;20377;-36
2022/09/18 00:31:30;;;;;;;;;;;;;;;21.73;49.73;101153.19;5141444;27;19931;-36
2022/09/18 00:33:56;;;;;;;;;;;;;;;21.72;49.75;101151.56;5116722;27;20339;-36
2022/09/18 00:36:22;;;;;;;;;;;;;;;21.73;49.77;101139.34;5139192;27;20014;-35
2022/09/18 00:38:48;;;;;;;;;;;;;;;21.74;49.82;101149.31;5121749;27;19924;-36
2022/09/18 00:41:16;;;;;;;;;;;;;;;21.73;49.68;101150.44;5120811;27;19937;-36
2022/09/18 00:43:42;;;;;;;;;;;;;;;21.72;49.68;101149.59;5139084;27;19978;-36
2022/09/18 00:46:16;;;;;;;;;;;;;;;21.72;49.82;101141.28;5137101;27;20269;-36
2022/09/18 00:48:44;;;;;;;;;;;;;;;21.73;49.74;101144.88;5137740;27;20358;-36
2022/09/18 00:51:10;;;;;;;;;;;;;;;21.74;49.69;101152.06;5142606;27;20005;-36
2022/09/18 00:53:35;;;;;;;;;;;;;;;21.72;49.76;101154.31;5124632;27;19947;-35
2022/09/18 00:56:01;;;;;;;;;;;;;;;21.72;49.77;101154.31;5138439;27;19931;-35
2022/09/18 00:58:27;;;;;;;;;;;;;;;21.72;49.84;101154.31;5139471;27;19949;-35
2022/09/18 01:00:54;;;;;;;;;;;;;;;21.73;49.79;101158.75;5136820;27;19924;-36
2022/09/18 01:03:20;;;;;;;;;;;;;;;21.73;49.84;101158.75;5133130;27;19963;-35
2022/09/18 01:06:06;;;;;;;;;;;;;;;21.72;49.66;101159.88;5121233;27;19933;-35
2022/09/18 01:08:52;;;;;;;;;;;;;;;21.72;49.84;101159.88;5141482;27;20006;-35
2022/09/18 01:11:37;;;;;;;;;;;;;;;21.72;49.76;101157.91;5121401;27;20033;-36
2022/09/18 01:14:23;;;;;;;;;;;;;;;21.71;49.70;101161.78;5124968;27;20020;-35
2022/09/18 01:16:52;;;;;;;;;;;;;;;21.71;49.82;101153.47;5120444;27;20005;-35
2022/09/18 01:19:30;;;;;;;;;;;;;;;21.73;49.66;101155.97;5117140;27;19990;-35
2022/09/18 01:22:00;;;;;;;;;;;;;;;21.73;49.70;101161.50;5116441;27;20002;-36
2022/09/18 01:24:31;;;;;;;;;;;;;;;21.72;49.74;101157.91;5121015;27;20417;-35
2022/09/18 01:27:04;;;;;;;;;;;;;;;21.71;49.74;101159.00;5134339;27;20010;-35
2022/09/18 01:29:40;;;;;;;;;;;;;;;21.71;49.71;101160.97;5136610;27;20022;-35
2022/09/18 01:32:08;;;;;;;;;;;;;;;21.72;49.57;101159.88;5138169;27;20362;-36
2022/09/18 01:34:36;;;;;;;;;;;;;;;21.70;49.70;101151.81;5116379;27;20010;-37
2022/09/18 01:37:03;;;;;;;;;;;;;;;21.71;49.67;101153.47;5120169;27;20018;-36
2022/09/18 01:39:31;;;;;;;;;;;;;;;21.71;49.62;101152.66;5137732;27;20342;-36
2022/09/18 01:41:57;;;;;;;;;;;;;;;21.72;49.74;101157.09;5137535;27;19969;-35
2022/09/18 01:44:25;;;;;;;;;;;;;;;21.72;49.71;101157.09;5118400;27;20006;-35
2022/09/18 01:46:51;;;;;;;;;;;;;;;21.72;49.63;101160.69;5116969;27;19981;-36
2022/09/18 01:49:18;;;;;;;;;;;;;;;21.71;49.66;101159.00;5138996;27;20001;-36
2022/09/18 01:51:46;;;;;;;;;;;;;;;21.70;49.79;101151.00;5115336;27;19981;-36
2022/09/18 01:54:14;;;;;;;;;;;;;;;21.71;49.67;101147.09;5120606;27;19963;-36
2022/09/18 01:56:42;;;;;;;;;;;;;;;21.71;49.80;101147.09;5135606;27;19978;-35
2022/09/18 01:59:10;;;;;;;;;;;;;;;21.71;49.75;101156.25;5139935;27;19974;-36
2022/09/18 02:01:36;;;;;;;;;;;;;;;21.71;49.77;101153.47;5136770;27;20014;-36
2022/09/18 02:04:05;;;;;;;;;;;;;;;21.71;49.68;101163.75;5121012;27;19930;-35
2022/09/18 02:06:32;;;;;;;;;;;;;;;21.71;49.76;101166.50;5116232;27;20014;-35
2022/09/18 02:08:58;;;;;;;;;;;;;;;21.69;49.76;101161.28;5136715;27;20010;-36
2022/09/18 02:11:23;;;;;;;;;;;;;;;21.70;49.71;101157.38;5118244;27;20266;-36
2022/09/18 02:13:51;;;;;;;;;;;;;;;21.69;49.70;101141.03;5136417;27;19923;-36
2022/09/18 02:16:18;;;;;;;;;;;;;;;21.69;49.76;101141.88;5121352;27;20027;-35
2022/09/18 02:18:45;;;;;;;;;;;;;;;21.70;49.60;101137.97;5138109;27;19923;-37
2022/09/18 02:21:12;;;;;;;;;;;;;;;21.71;49.74;101141.56;5132922;27;20393;-35
2022/09/18 02:23:38;;;;;;;;;;;;;;;21.71;49.85;101147.09;5141186;27;19962;-35
2022/09/18 02:26:06;;;;;;;;;;;;;;;21.71;49.71;101138.78;5115077;27;19978;-37
2022/09/18 02:28:31;;;;;;;;;;;;;;;21.70;49.63;101135.19;5120085;27;20345;-35
2022/09/18 02:30:57;;;;;;;;;;;;;;;21.71;49.63;101141.56;5117353;27;19930;-36
2022/09/18 02:36:22;;;;;;;;;;;;;;;21.70;49.81;101128.81;5163846;27;20429;-36
2022/09/18 02:38:50;;;;;;;;;;;;;;;21.69;49.70;101128.00;5147458;27;20002;-36
2022/09/18 02:41:36;;;;;;;;;;;;;;;21.68;49.64;101129.13;5159682;27;19973;-36
2022/09/18 02:44:06;;;;;;;;;;;;;;;21.69;49.73;101129.97;5148799;27;20017;-36
2022/09/18 02:46:38;;;;;;;;;;;;;;;21.69;49.73;101129.97;5140050;27;20064;-35
2022/09/18 02:49:13;;;;;;;;;;;;;;;21.69;49.65;101122.47;5158849;27;19942;-35
2022/09/18 02:51:42;;;;;;;;;;;;;;;21.68;49.77;101120.81;5142677;27;20018;-35
2022/09/18 02:54:12;;;;;;;;;;;;;;;21.68;49.68;101118.06;5164164;27;20015;-36
2022/09/18 02:56:43;;;;;;;;;;;;;;;21.68;49.81;101123.59;5158594;27;20359;-36
2022/09/18 02:59:11;;;;;;;;;;;;;;;21.70;49.68;101126.06;5140792;27;19967;-36
2022/09/18 03:01:38;;;;;;;;;;;;;;;21.69;49.68;101124.41;5144504;27;20030;-36
2022/09/18 03:04:04;;;;;;;;;;;;;;;21.68;49.77;101125.53;5164765;27;19931;-36
2022/09/18 03:06:30;;;;;;;;;;;;;;;21.68;49.63;101120.00;5145279;27;19968;-35
2022/09/18 03:08:56;;;;;;;;;;;;;;;21.68;49.67;101120.00;5160539;27;20280;-35
2022/09/18 03:11:21;;;;;;;;;;;;;;;21.68;49.72;101120.81;5163041;27;20326;-36
2022/09/18 03:13:47;;;;;;;;;;;;;;;21.69;49.73;101118.88;5162967;27;20425;-36
2022/09/18 03:16:13;;;;;;;;;;;;;;;21.67;49.77;101121.91;5161676;27;21047;-35
2022/09/18 03:18:38;;;;;;;;;;;;;;;21.67;49.74;101116.38;5165666;27;20010;-36
2022/09/18 03:21:04;;;;;;;;;;;;;;;21.67;49.65;101119.13;5164491;27;19935;-36
2022/09/18 03:23:30;;;;;;;;;;;;;;;21.68;49.67;101120.00;5147112;27;20018;-36
2022/09/18 03:25:55;;;;;;;;;;;;;;;21.70;49.76;101112.19;5162585;27;19930;-37
2022/09/18 03:28:21;;;;;;;;;;;;;;;21.68;49.63;101118.06;5165096;27;20250;-35
2022/09/18 03:30:48;;;;;;;;;;;;;;;21.70;49.69;101126.88;5163814;27;19934;-36
2022/09/18 03:33:14;;;;;;;;;;;;;;;21.67;49.71;101121.91;5164010;27;20623;-36
2022/09/18 03:35:41;;;;;;;;;;;;;;;21.69;49.68;101127.19;5163715;27;20385;-36
2022/09/18 03:38:06;;;;;;;;;;;;;;;21.68;49.76;101129.13;5165868;27;19991;-35
2022/09/18 03:40:32;;;;;;;;;;;;;;;21.68;49.69;101125.53;5164841;27;19984;-36
2022/09/18 03:42:58;;;;;;;;;;;;;;;21.66;49.84;101123.03;5141211;27;20372;-36
2022/09/18 03:45:24;;;;;;;;;;;;;;;21.67;49.66;101126.63;5163847;27;19923;-36
2022/09/18 03:47:49;;;;;;;;;;;;;;;21.67;49.60;101132.19;5132442;27;20452;-36
2022/09/18 03:50:15;;;;;;;;;;;;;;;21.67;49.72;101126.63;5152093;27;20372;-36
2022/09/18 03:52:40;;;;;;;;;;;;;;;21.68;49.66;101128.31;5152926;27;19923;-36
2022/09/18 03:55:06;;;;;;;;;;;;;;;21.69;49.69;101121.63;5153223;27;19931;-36
2022/09/18 03:57:32;;;;;;;;;;;;;;;21.67;49.73;101121.09;5151750;27;20385;-35
2022/09/18 03:59:58;;;;;;;;;;;;;;;21.69;49.62;101121.63;5150065;27;20545;-37
2022/09/18 04:02:23;;;;;;;;;;;;;;;21.66;49.69;101120.28;5152666;27;19931;-36
2022/09/18 04:04:49;;;;;;;;;;;;;;;21.67;49.73;101115.56;5151932;27;19931;-36
2022/09/18 04:07:14;;;;;;;;;;;;;;;21.67;49.62;101118.31;5151887;27;19981;-36
2022/09/18 04:09:40;;;;;;;;;;;;;;;21.66;49.74;101122.22;5153386;27;19950;-36
2022/09/18 04:12:06;;;;;;;;;;;;;;;21.67;49.75;101112.78;5152278;27;20310;-36
2022/09/18 04:14:31;;;;;;;;;;;;;;;21.65;49.79;101118.63;5150173;27;19975;-36
2022/09/18 04:16:57;;;;;;;;;;;;;;;21.65;49.68;101118.63;5149606;27;19923;-36
2022/09/18 04:19:23;;;;;;;;;;;;;;;21.65;49.68;101115.84;5152230;27;19923;-36
2022/09/18 04:21:48;;;;;;;;;;;;;;;21.66;49.65;101120.28;5152084;27;19927;-36
2022/09/18 04:24:14;;;;;;;;;;;;;;;21.67;49.74;101126.63;5152548;27;19931;-36
2022/09/18 04:26:39;;;;;;;;;;;;;;;21.66;49.78;101128.59;5150849;27;19927;-36
2022/09/18 04:29:05;;;;;;;;;;;;;;;21.66;49.64;101136.06;5151309;27;19927;-36
2022/09/18 04:31:31;;;;;;;;;;;;;;;21.66;49.68;101125.00;5135946;27;20289;-36
2022/09/18 04:33:56;;;;;;;;;;;;;;;21.65;49.73;101115.84;5150784;27;19984;-36
2022/09/18 04:36:22;;;;;;;;;;;;;;;21.65;49.67;101118.63;5134570;27;20029;-36
2022/09/18 04:38:48;;;;;;;;;;;;;;;21.65;49.81;101117.81;5152285;27;19923;-35
2022/09/18 04:41:13;;;;;;;;;;;;;;;21.66;49.73;101125.81;5151699;27;19942;-36
2022/09/18 04:43:39;;;;;;;;;;;;;;;21.66;49.64;101117.50;5151311;27;19923;-36
2022/09/18 04:46:05;;;;;;;;;;;;;;;21.65;49.62;101117.81;5148714;27;19927;-36
2022/09/18 04:48:30;;;;;;;;;;;;;;;21.65;49.67;101120.56;5133317;27;19934;-36
2022/09/18 04:50:56;;;;;;;;;;;;;;;21.65;49.60;101115.84;5152565;27;19931;-36
2022/09/18 04:53:21;;;;;;;;;;;;;;;21.65;49.82;101112.25;5152145;27;19927;-36
2022/09/18 04:55:47;;;;;;;;;;;;;;;21.67;49.77;101123.88;5149546;27;19930;-36
2022/09/18 04:58:13;;;;;;;;;;;;;;;21.65;49.81;101115.03;5150368;27;20071;-36
2022/09/18 05:00:39;;;;;;;;;;;;;;;21.64;49.76;101116.16;5150010;27;20014;-36
2022/09/18 05:03:05;;;;;;;;;;;;;;;21.64;49.66;101108.66;5150821;27;19931;-35
2022/09/18 05:05:31;;;;;;;;;;;;;;;21.66;49.57;101108.34;5150997;27;19990;-37
2022/09/18 05:07:58;;;;;;;;;;;;;;;21.65;49.64;101103.94;5150474;27;19977;-36
2022/09/18 05:10:23;;;;;;;;;;;;;;;21.65;49.70;101098.41;5151674;27;19970;-36
2022/09/18 05:12:49;;;;;;;;;;;;;;;21.64;49.74;101108.66;5150857;27;19934;-37
2022/09/18 05:15:15;;;;;;;;;;;;;;;21.65;49.76;101106.72;5150337;27;19927;-36
2022/09/18 05:17:40;;;;;;;;;;;;;;;21.65;49.73;101103.94;5131415;27;19931;-37
2022/09/18 05:20:07;;;;;;;;;;;;;;;21.64;49.63;101110.63;5151323;27;20029;-35
2022/09/18 05:22:33;;;;;;;;;;;;;;;21.64;49.67;101110.63;5152461;27;20342;-35
2022/09/18 05:24:59;;;;;;;;;;;;;;;21.66;49.70;101111.94;5133193;27;20402;-36
2022/09/18 05:27:24;;;;;;;;;;;;;;;21.64;49.77;101102.28;5150020;27;20025;-35
2022/09/18 05:29:52;;;;;;;;;;;;;;;21.65;49.76;101106.72;5133037;27;19931;-36
2022/09/18 05:32:19;;;;;;;;;;;;;;;21.63;49.64;101109.78;5150331;27;19954;-36
2022/09/18 05:34:45;;;;;;;;;;;;;;;21.64;49.83;101102.28;5151323;27;20014;-37
2022/09/18 05:37:12;;;;;;;;;;;;;;;21.65;49.68;101113.09;5150666;27;20056;-36
2022/09/18 05:39:37;;;;;;;;;;;;;;;21.65;49.70;101112.25;5132603;27;19993;-37
2022/09/18 05:42:03;;;;;;;;;;;;;;;21.64;49.64;101113.38;5150439;27;19931;-36
2022/09/18 05:44:29;;;;;;;;;;;;;;;21.64;49.63;101116.16;5151402;27;20277;-35
2022/09/18 05:46:54;;;;;;;;;;;;;;;21.66;49.55;101119.44;5148176;27;20038;-36
2022/09/18 05:49:20;;;;;;;;;;;;;;;21.63;49.67;101120.03;5151743;27;19926;-36
2022/09/18 05:51:46;;;;;;;;;;;;;;;21.64;49.71;101118.94;5150240;27;19927;-36
2022/09/18 05:54:11;;;;;;;;;;;;;;;21.60;49.67;101115.91;5150528;27;20304;-36
2022/09/18 05:56:37;;;;;;;;;;;;;;;21.62;49.60;101121.97;5149077;27;19968;-36
2022/09/18 05:59:02;;;;;;;;;;;;;;;21.62;49.45;101123.91;5133599;27;19931;-36
2022/09/18 06:01:29;;;;;;;;;;;;;;;21.63;49.73;101122.78;5149870;27;19974;-36
2022/09/18 06:03:54;;;;;;;;;;;;;;;21.62;49.71;101123.91;5149871;27;19952;-36
2022/09/18 06:06:20;;;;;;;;;;;;;;;21.62;49.73;101127.50;5149074;27;19927;-36
2022/09/18 06:08:46;;;;;;;;;;;;;;;21.62;49.71;101126.69;5150138;27;19961;-36
2022/09/18 06:11:11;;;;;;;;;;;;;;;21.63;49.65;101123.66;5149175;27;20265;-36
2022/09/18 06:13:37;;;;;;;;;;;;;;;21.62;49.73;101124.75;5150776;27;19923;-36
2022/09/18 06:16:03;;;;;;;;;;;;;;;21.63;49.66;101122.78;5147268;27;21128;-36
2022/09/18 06:18:28;;;;;;;;;;;;;;;21.63;49.67;101126.41;5150523;27;20361;-36
2022/09/18 06:20:55;;;;;;;;;;;;;;;21.64;49.67;101121.69;5149469;27;19942;-36
2022/09/18 06:23:21;;;;;;;;;;;;;;;21.64;49.71;101128.06;5132807;27;20075;-36
2022/09/18 06:25:47;;;;;;;;;;;;;;;21.63;49.66;101115.34;5135496;27;19959;-36
2022/09/18 06:28:13;;;;;;;;;;;;;;;21.61;49.68;101122.28;5150014;27;19979;-36
2022/09/18 06:30:38;;;;;;;;;;;;;;;21.63;49.66;101120.88;5149796;27;20005;-36
2022/09/18 06:33:05;;;;;;;;;;;;;;;21.62;49.70;101115.59;5149525;27;19931;-37
2022/09/18 06:35:31;;;;;;;;;;;;;;;21.63;49.71;101117.25;5148804;27;20453;-38
2022/09/18 06:37:59;;;;;;;;;;;;;;;21.62;49.68;101113.66;5134678;27;20014;-36
2022/09/18 06:40:24;;;;;;;;;;;;;;;21.63;49.84;101112.56;5148781;27;19986;-36
2022/09/18 06:42:53;;;;;;;;;;;;;;;21.64;49.41;101121.69;5150031;27;19927;-35
2022/09/18 06:45:19;;;;;;;;;;;;;;;21.62;49.74;101123.91;5131921;27;19976;-36
2022/09/18 06:47:45;;;;;;;;;;;;;;;21.63;49.63;101117.25;5145157;27;19971;-36
2022/09/18 06:50:11;;;;;;;;;;;;;;;21.62;49.59;101119.19;5148819;27;20254;-36
2022/09/18 06:52:37;;;;;;;;;;;;;;;21.62;49.66;101115.59;5150830;27;19984;-36
2022/09/18 06:55:02;;;;;;;;;;;;;;;21.62;49.68;101118.38;5151276;27;19968;-36
2022/09/18 06:57:28;;;;;;;;;;;;;;;21.63;49.57;101112.56;5149883;27;19931;-36
2022/09/18 06:59:54;;;;;;;;;;;;;;;21.62;49.66;101110.06;5149478;27;19931;-36
2022/09/18 07:02:19;;;;;;;;;;;;;;;21.62;49.68;101110.06;5149609;27;19923;-36
2022/09/18 07:04:45;;;;;;;;;;;;;;;21.62;49.69;101108.13;5149462;27;19927;-36
2022/09/18 07:07:11;;;;;;;;;;;;;;;21.63;49.67;101108.94;5147467;27;20021;-36
2022/09/18 07:09:36;;;;;;;;;;;;;;;21.62;49.78;101108.13;5150838;27;19938;-36
2022/09/18 07:12:02;;;;;;;;;;;;;;;21.61;49.62;101106.47;5149128;27;19949;-36
2022/09/18 07:14:28;;;;;;;;;;;;;;;21.62;49.62;101115.59;5148933;27;19989;-35
2022/09/18 07:16:53;;;;;;;;;;;;;;;21.63;49.52;101120.03;5146865;27;19923;-36
2022/09/18 07:19:19;;;;;;;;;;;;;;;21.63;49.68;101109.78;5149731;27;20006;-36
2022/09/18 07:21:45;;;;;;;;;;;;;;;21.62;49.69;101110.06;5149802;27;19935;-36
2022/09/18 07:24:10;;;;;;;;;;;;;;;21.62;49.67;101098.97;5153769;27;19927;-36
2022/09/18 07:26:36;;;;;;;;;;;;;;;21.62;49.84;101113.66;5153434;27;20007;-36
2022/09/18 07:29:01;;;;;;;;;;;;;;;21.61;49.58;101105.66;5152321;27;21350;-36
2022/09/18 07:31:33;;;;;;;;;;;;;;;21.63;49.78;101103.41;5152010;27;19987;-36
2022/09/18 07:33:59;;;;;;;;;;;;;;;21.61;49.62;101102.88;5134298;27;20040;-36
2022/09/18 07:36:25;;;;;;;;;;;;;;;21.62;49.68;101097.03;5152337;27;20050;-36
2022/09/18 07:38:51;;;;;;;;;;;;;;;21.61;49.68;101100.09;5139409;27;20425;-36
2022/09/18 07:41:17;;;;;;;;;;;;;;;21.59;49.65;101097.63;5152487;27;19927;-36
2022/09/18 07:43:43;;;;;;;;;;;;;;;21.60;49.61;101101.22;5153443;27;19930;-36
2022/09/18 07:46:08;;;;;;;;;;;;;;;21.61;49.77;101083.47;5150013;27;19966;-36
2022/09/18 07:48:34;;;;;;;;;;;;;;;21.60;49.71;101093.75;5154094;27;19923;-36
2022/09/18 07:51:00;;;;;;;;;;;;;;;21.61;49.68;101086.25;5134681;27;20350;-36
2022/09/18 07:53:26;;;;;;;;;;;;;;;21.59;49.68;101091.25;5133794;27;19978;-36
2022/09/18 07:55:54;;;;;;;;;;;;;;;21.60;49.70;101104.00;5151996;27;19923;-38
2022/09/18 07:58:20;;;;;;;;;;;;;;;21.61;49.62;101102.88;5151347;27;19997;-36
2022/09/18 08:00:46;;;;;;;;;;;;;;;21.60;49.69;101104.81;5153161;27;19970;-36
2022/09/18 08:03:12;;;;;;;;;;;;;;;21.60;49.95;101101.22;5152849;27;20265;-38
2022/09/18 08:05:39;;;;;;;;;;;;;;;21.61;49.77;101100.09;5136149;27;20002;-36
2022/09/18 08:08:05;;;;;;;;;;;;;;;21.59;49.80;101103.19;5151249;27;20342;-36
2022/09/18 08:10:32;;;;;;;;;;;;;;;21.57;49.69;101102.63;5151256;27;20061;-36
2022/09/18 08:12:58;;;;;;;;;;;;;;;21.58;49.71;101098.72;5136283;27;21243;-36
2022/09/18 08:15:23;;;;;;;;;;;;;;;21.60;49.53;101112.31;5151244;27;19989;-36
2022/09/18 08:17:49;;;;;;;;;;;;;;;21.61;49.69;101105.66;5135337;27;19937;-36
2022/09/18 08:20:15;;;;;;;;;;;;;;;21.58;49.63;101098.72;5152070;27;19930;-38
2022/09/18 08:22:40;;;;;;;;;;;;;;;21.57;49.78;101108.16;5137423;27;20322;-36
2022/09/18 08:25:06;;;;;;;;;;;;;;;21.57;49.58;101108.16;5152316;27;19960;-35
2022/09/18 08:27:35;;;;;;;;;;;;;;;21.58;49.68;101117.31;5152060;27;19923;-35
2022/09/18 08:30:01;;;;;;;;;;;;;;;21.57;49.72;101122.03;5134589;27;20019;-35
2022/09/18 08:32:27;;;;;;;;;;;;;;;21.59;49.71;101119.81;5151855;27;19924;-36
2022/09/18 08:34:53;;;;;;;;;;;;;;;21.57;49.69;101113.72;5151768;27;19923;-36
2022/09/18 08:37:18;;;;;;;;;;;;;;;21.58;49.64;101109.81;5151391;27;20022;-36
2022/09/18 08:39:44;;;;;;;;;;;;;;;21.59;49.69;101105.09;5151781;27;19968;-36
2022/09/18 08:44:48;;;;;;;;;;;;;;;21.58;49.76;101112.59;5176250;27;20431;-35
2022/09/18 08:47:17;;;;;;;;;;;;;;;21.60;49.68;101118.69;5156069;27;20005;-35
2022/09/18 08:49:45;;;;;;;;;;;;;;;21.60;49.62;101112.31;5164481;27;20009;-35
2022/09/18 08:52:19;;;;;;;;;;;;;;;21.60;49.67;101115.91;5142290;27;20006;-35
2022/09/18 08:55:01;;;;;;;;;;;;;;;21.58;49.61;101112.59;5142527;27;20097;-35
2022/09/18 08:57:28;;;;;;;;;;;;;;;21.59;49.76;101105.09;5160196;27;19962;-35
2022/09/18 08:59:55;;;;;;;;;;;;;;;21.60;49.59;101098.47;5163644;27;20017;-35
2022/09/18 09:02:25;;;;;;;;;;;;;;;21.59;49.78;101097.63;5139845;27;20041;-35
2022/09/18 09:04:51;;;;;;;;;;;;;;;21.57;49.73;101097.09;5145474;27;19927;-35
2022/09/18 09:07:21;;;;;;;;;;;;;;;21.57;49.75;101096.25;5160253;27;20026;-35
2022/09/18 09:10:07;;;;;;;;;;;;;;;21.59;49.61;101099.56;5159157;27;20034;-35
2022/09/18 09:12:40;;;;;;;;;;;;;;;21.59;49.43;101103.19;5137682;27;19966;-35
2022/09/18 09:15:26;;;;;;;;;;;;;;;21.60;49.64;101104.00;5158884;27;19984;-37
2022/09/18 09:18:11;;;;;;;;;;;;;;;21.58;49.68;101100.69;5148110;27;19981;-35
2022/09/18 09:20:53;;;;;;;;;;;;;;;21.57;49.69;101108.16;5142575;27;19975;-35
2022/09/18 09:23:22;;;;;;;;;;;;;;;21.57;49.68;101102.63;5142269;27;20353;-35
2022/09/18 09:28:34;;;;;;;;;;;;;;;21.57;49.64;101102.63;5175325;27;19925;-34
2022/09/18 09:31:00;;;;;;;;;;;;;;;21.57;49.78;101107.34;5158654;27;20010;-35
2022/09/18 09:33:27;;;;;;;;;;;;;;;21.58;49.69;101100.69;5136697;27;19923;-36
2022/09/18 09:35:53;;;;;;;;;;;;;;;21.57;49.63;101091.53;5153436;27;20412;-35
2022/09/18 09:38:29;;;;;;;;;;;;;;;21.56;49.79;101089.91;5155610;27;20049;-35
2022/09/18 09:40:54;;;;;;;;;;;;;;;21.57;49.80;101088.78;5141787;27;19980;-34
2022/09/18 09:43:25;;;;;;;;;;;;;;;21.57;49.64;101090.72;5149635;27;19924;-35
2022/09/18 09:45:51;;;;;;;;;;;;;;;21.57;49.59;101085.19;5118275;27;20186;-36
2022/09/18 09:48:20;;;;;;;;;;;;;;;21.57;49.90;101091.53;5117595;27;20006;-36
2022/09/18 09:50:48;;;;;;;;;;;;;;;21.57;49.64;101087.94;5118725;27;20007;-36
2022/09/18 09:53:13;;;;;;;;;;;;;;;21.57;49.73;101077.69;5120204;27;20010;-35
2022/09/18 09:58:48;;;;;;;;;;;;;;;21.57;49.75;101074.09;5177988;27;20034;-35
2022/09/18 10:01:17;;;;;;;;;;;;;;;21.55;49.62;101079.94;5152166;27;20006;-36
2022/09/18 10:03:47;;;;;;;;;;;;;;;21.54;49.76;101075.50;5175204;27;19942;-35
2022/09/18 10:06:15;;;;;;;;;;;;;;;21.56;49.75;101072.44;5169451;27;19997;-36
2022/09/18 10:08:44;;;;;;;;;;;;;;;21.55;49.70;101066.09;5172845;27;19966;-35
2022/09/18 10:11:11;;;;;;;;;;;;;;;21.56;49.75;101058.59;5174635;27;19999;-36
2022/09/18 10:13:56;;;;;;;;;;;;;;;21.56;49.66;101059.41;5174924;27;19937;-36
2022/09/18 10:16:24;;;;;;;;;;;;;;;21.56;49.75;101058.59;5158378;27;20064;-35
2022/09/18 10:18:50;;;;;;;;;;;;;;;21.54;49.71;101064.41;5178780;27;19942;-35
2022/09/18 10:21:17;;;;;;;;;;;;;;;21.55;49.75;101068.84;5170080;27;19930;-36
2022/09/18 10:23:43;;;;;;;;;;;;;;;21.54;49.73;101059.72;5175994;27;19981;-36
2022/09/18 10:26:10;;;;;;;;;;;;;;;21.54;49.81;101051.41;5153076;27;19990;-35
2022/09/18 10:28:36;;;;;;;;;;;;;;;21.56;49.83;101051.09;5173779;27;19966;-35
2022/09/18 10:31:03;;;;;;;;;;;;;;;21.58;49.75;101056.34;5170914;27;19930;-35
2022/09/18 10:33:31;;;;;;;;;;;;;;;21.59;49.76;101066.31;5174335;27;19923;-36
2022/09/18 10:36:00;;;;;;;;;;;;;;;21.56;49.75;101058.59;5166315;27;21221;-35
2022/09/18 10:38:29;;;;;;;;;;;;;;;21.56;50.05;101047.50;5174917;27;20017;-36
2022/09/18 10:40:54;;;;;;;;;;;;;;;21.57;49.79;101054.69;5172910;27;20033;-36
2022/09/18 10:43:20;;;;;;;;;;;;;;;21.58;49.69;101053.56;5178774;27;19923;-35
2022/09/18 10:45:50;;;;;;;;;;;;;;;21.56;49.70;101050.28;5151555;27;21094;-36
2022/09/18 10:48:16;;;;;;;;;;;;;;;21.55;49.83;101046.69;5152791;27;20344;-36
2022/09/18 10:50:57;;;;;;;;;;;;;;;21.54;49.74;101045.88;5171740;27;20396;-36
2022/09/18 10:53:27;;;;;;;;;;;;;;;21.57;49.80;101040.84;5153336;27;20435;-35
2022/09/18 10:55:53;;;;;;;;;;;;;;;21.56;49.73;101033.66;5149142;27;19969;-36
2022/09/18 10:58:25;;;;;;;;;;;;;;;21.56;49.64;101040.03;5179339;27;20365;-36
2022/09/18 11:00:55;;;;;;;;;;;;;;;21.56;49.78;101040.03;5156580;27;20389;-35
2022/09/18 11:03:30;;;;;;;;;;;;;;;21.56;49.80;101041.97;5156712;27;19951;-35
2022/09/18 11:05:57;;;;;;;;;;;;;;;21.54;49.71;101040.31;5155885;27;20021;-35
2022/09/18 11:08:23;;;;;;;;;;;;;;;21.56;49.69;101031.72;5167884;27;20017;-35
2022/09/18 11:10:50;;;;;;;;;;;;;;;21.58;49.70;101035.00;5158307;27;19981;-35
2022/09/18 11:13:19;;;;;;;;;;;;;;;21.59;49.78;101030.28;5141859;27;19962;-35
2022/09/18 11:15:48;;;;;;;;;;;;;;;21.57;49.73;101029.75;5156251;27;20708;-35
2022/09/18 11:18:14;;;;;;;;;;;;;;;21.56;49.70;101022.56;5138451;27;19927;-35
2022/09/18 11:20:41;;;;;;;;;;;;;;;21.56;49.89;101040.03;5156438;27;19923;-36
2022/09/18 11:23:23;;;;;;;;;;;;;;;21.54;49.65;101039.47;5144292;27;20025;-35
2022/09/18 11:25:49;;;;;;;;;;;;;;;21.55;49.81;101032.84;5154709;27;20792;-35
2022/09/18 11:28:30;;;;;;;;;;;;;;;21.56;49.74;101034.47;5160051;27;20721;-34
2022/09/18 11:31:01;;;;;;;;;;;;;;;21.57;49.61;101026.97;5155903;27;20078;-35
2022/09/18 11:33:27;;;;;;;;;;;;;;;21.53;49.79;101030.34;5141148;27;20366;-35
2022/09/18 11:35:55;;;;;;;;;;;;;;;21.54;49.79;101031.16;5157420;27;19981;-35
2022/09/18 11:38:21;;;;;;;;;;;;;;;21.57;49.73;101024.22;5143352;27;20409;-35
2022/09/18 11:40:50;;;;;;;;;;;;;;;21.57;49.78;101025.03;5155480;27;19923;-35
2022/09/18 11:43:20;;;;;;;;;;;;;;;21.57;49.75;101036.13;5139749;27;20397;-35
2022/09/18 11:45:50;;;;;;;;;;;;;;;21.54;49.72;101032.00;5119485;27;20010;-35
2022/09/18 11:48:18;;;;;;;;;;;;;;;21.54;49.80;101037.56;5138788;27;20483;-35
2022/09/18 11:50:43;;;;;;;;;;;;;;;21.55;49.77;101038.38;5138258;27;20022;-35
2022/09/18 11:53:11;;;;;;;;;;;;;;;21.54;49.83;101023.69;5144444;27;19930;-36
2022/09/18 11:55:39;;;;;;;;;;;;;;;21.55;49.85;101030.06;5121208;27;20015;-36
2022/09/18 11:58:08;;;;;;;;;;;;;;;21.56;49.84;101020.63;5146601;27;19993;-36
2022/09/18 12:00:35;;;;;;;;;;;;;;;21.59;49.70;101027.50;5120103;27;20047;-36
2022/09/18 12:03:05;;;;;;;;;;;;;;;21.55;49.79;101035.59;5141210;27;20329;-36
2022/09/18 12:08:37;;;;;;;;;;;;;;;21.54;49.64;101051.41;5178554;27;19950;-36
2022/09/18 12:11:22;;;;;;;;;;;;;;;21.54;49.93;101075.50;5140074;27;20059;-35
2022/09/18 12:13:52;;;;;;;;;;;;;;;21.55;49.80;101077.16;5144568;27;20392;-35
2022/09/18 12:16:21;;;;;;;;;;;;;;;21.53;49.81;101083.00;5138342;27;20023;-36
2022/09/18 12:18:48;;;;;;;;;;;;;;;21.52;49.78;101072.22;5144234;27;20083;-36
2022/09/18 12:21:15;;;;;;;;;;;;;;;21.50;49.76;101069.75;5153920;27;20281;-35
2022/09/18 12:23:40;;;;;;;;;;;;;;;21.52;49.76;101070.25;5142565;27;20020;-36
2022/09/18 12:26:09;;;;;;;;;;;;;;;21.51;49.80;101067.78;5162482;27;19937;-37
2022/09/18 12:28:37;;;;;;;;;;;;;;;21.51;49.86;101065.84;5141555;27;19977;-37
2022/09/18 12:31:23;;;;;;;;;;;;;;;21.51;49.96;101060.31;5155673;27;20018;-36
2022/09/18 12:33:53;;;;;;;;;;;;;;;21.51;49.78;101057.53;5142112;27;20315;-36
2022/09/18 12:36:39;;;;;;;;;;;;;;;21.51;49.92;101051.16;5162415;27;20415;-35
2022/09/18 12:39:22;;;;;;;;;;;;;;;21.49;49.85;101048.66;5141808;27;20359;-35
2022/09/18 12:42:07;;;;;;;;;;;;;;;21.51;49.88;101054.75;5158835;27;20013;-35
2022/09/18 12:44:37;;;;;;;;;;;;;;;21.50;49.92;101058.66;5143207;27;20445;-35
2022/09/18 12:47:14;;;;;;;;;;;;;;;21.52;49.84;101063.91;5153496;27;20018;-36
2022/09/18 12:49:59;;;;;;;;;;;;;;;21.52;49.86;101061.13;5156354;27;19970;-35
2022/09/18 12:52:30;;;;;;;;;;;;;;;21.50;49.84;101064.19;5144077;27;19962;-35
2022/09/18 12:55:15;;;;;;;;;;;;;;;21.50;49.76;101068.88;5159230;27;20014;-35